Saturday, July 02, 2016
02:05 UTC
  |  Log In   |  Register Free
Airport Search:

Julian Carroll Airport
(KJKL)

Julian Carroll Airport Diagram
No Airport Diagram Available

FAA data valid effective May 26 2016 - Jul 21 2016 (unless otherwise noted).

 
 
 
 
 
 
 
 
 
 
 
 
 
 
Current Aviation Weather for KJKL

Weather Summary


The most recent METAR observation for JKL was updated at: 12:53 UTC
METAR for KJKL is not available. Closest METAR is for
KJKL  (most recent observation was updatred at 20:15 UTC)
020153Z AUTO 00000KT 10SM SCT046 BKN055 24/19 A3004 RMK AO2 SLP157 T02390189

TAF for KJKL is not available.
KJKL
012342Z 0200/0224 VRB04KT P6SM SCT100 FM021600 VRB03KT P6SM BKN100

KSJS  (33.7 nm SW)   (most recent observation was updatred at 12:34 UTC)
012342Z 0200/0224 VRB05KT P6SM SCT050 FM021500 01004KT P6SM BKN100
GlobalAir.com is loading additional information.
 Current Weather at JKL
76.0 F° (24.4 C°)

West winds at 3.5 mph
Pressure:
30.02 in
Humidity:
69%
Wind:
West at 3.5 mph
Dew Point:
64.9 F° (18.3 C°)
Visibility:
10.00 mi
JKL NOAA Radar




Find All Airport Services Find A Hotel Find A Rental Car Find A Golf Course Find A Restaurant $100 Hamburger



Airport Weather Forecast for KJKL

Translated METAR for KJKL (0153 UTC)
METAR:
KJKL 020153Z AUTO 00000KT 10SM SCT046 BKN055 24/19 A3004 RMK AO2 SLP157 T02390189
Conditions at:
KJKL (Julian Carroll, KY) observed 0153 UTC 01 July 2016
Temperature:
24°C (75.2°F)
Dewpoint:
19°C (66.2°F) [RH = 73.6]
Pressure:
30.04 inches Hg (1017.3 mb)
pressure at sea level is 157 in Hg
Winds:
from the N (000 degrees) at 0 mph (0 knots: 0 m/s)
Visibility:
10 mile(s)
Ceiling:
5,500 feet AGL
Clouds:
Scattered Clouds at 4,600 feet AGL
Broken Cloud Cover at 5,500 feet AGL
Remarks:
site is un-manned
site is automated and HAS a precipitation sensor

Translated TAF for KJKL (Julian Carroll, KY) (2342 UTC)
TAF text:
KJKL 012342Z 0200/0224 VRB04KT P6SM SCT100
Forecast period:
Saturday Jul 02 2016 00:00 UTC - Saturday Jul 02 2016 24:00 UTC
Forecast type:
FROM: standard forecast or significant change
Winds:
variable wind direction at 4.6 mph (4 knots: 2.1 m/s)
Visibility:
6 or more mile(s) (9.7+ km)
Ceiling:
at least 12,000 feet AGL
Clouds:
Scattered Clouds at 10,000 feet AGL
Weather:
no significant weather observed at this time
TAF text:
FM021600 VRB03KT P6SM BKN100
Forecast period:
Saturday Jul 02 2016 16:00 UTC - Saturday Jul 02 2016 24:00 UTC
Forecast type:
FROM: standard forecast or significant change
Winds:
variable wind direction at 3.5 mph (3 knots: 1.5 m/s)
Visibility:
6 or more mile(s) (9.7+ km)
Ceiling:
10,000 feet AGL
Clouds:
Broken Cloud Cover at 10,000 feet AGL
Weather:
no significant weather observed at this time
FBO's on the Field
FBO Company Facility Photos Services Transportation Aviation Fuel Prices: Prices include tax
Catering Weather Repair Courtesy Rental Type 100LL JetA JetA+ MOGAS 8087
 
Add another FBO Facility Photos Catering Weather Repair Courtesy Rental Type 100LL JetA JetA+ MOGAS 8087
Services Transportation Aviation Fuel Prices: Prices include tax
There are no FBO's currently reporting fuel at JKL. List your FBO now


model-print
model-print
model-print
model-print